Cosco Tengfei — HPMO — position and weather

sailwx.info

Track history (hours):
 
Tides and Currents Weather Stations Pressure Air Temp Water Temp Dewpoint Dewpoint Depression Visibility Wind Speed Wind Dir Waves Ship Positions

Cosco Tengfei

Last reported at 2015-May-03 23:32 UTC. Time now 2015-May-04 00:57 UTC.
Position N 39°01' E 117°46'.

Length 183 m; draft 8.4 m.

Type: Cargo ship. MMSI: 355518000.

Date/timePositionNaut miles runAvg speedWind from/ knotsBaromVisibWave heightAir tempDewpointWater temp
2015-May-03 23:32N 39°01' E 117°46'5 5.5
2015-May-03 22:33N 38°58' E 117°51'1010.2
2015-May-03 21:31N 38°56' E 118°05'72 6.0
2015-May-03 09:31N 38°46' E 119°36'1313.5
2015-May-03 08:33N 38°44' E 119°53'11113.9
2015-May-03 00:33N 38°04' E 122°05'2014.1
2015-May-02 23:06N 37°50' E 122°23'914.8
2015-May-02 22:31N 37°43' E 122°29'39613.2
2015-May-01 16:32N 31°07' E 122°17'1414.2
2015-May-01 15:33N 31°14' E 122°03'1413.6
2015-May-01 14:34N 31°17' E 121°48'6 5.9
2015-May-01 13:31N 31°19' E 121°41'0 0.0
2015-May-01 12:31N 31°19' E 121°41'0 0.0
2015-May-01 11:31N 31°19' E 121°41'0 0.0
2015-May-01 10:31N 31°19' E 121°41'0 0.0
2015-May-01 09:31N 31°19' E 121°41'0 0.0
2015-May-01 08:31N 31°19' E 121°41'0 0.0
2015-May-01 07:31N 31°19' E 121°41'0 0.0
2015-May-01 06:31N 31°19' E 121°41'0 0.0
2015-May-01 05:28N 31°19' E 121°41'0 0.0
2015-May-01 04:31N 31°19' E 121°41'0 0.0
2015-May-01 03:25N 31°19' E 121°41'0 0.0
2015-May-01 02:28N 31°19' E 121°41'0 0.0
2015-May-01 01:31N 31°19' E 121°41'0 0.0
2015-May-01 00:28N 31°19' E 121°41'0 0.0
2015-Apr-30 23:28N 31°19' E 121°41'0 0.0
2015-Apr-30 22:31N 31°19' E 121°41'0 0.0
2015-Apr-30 21:31N 31°19' E 121°41'0 0.0
2015-Apr-30 20:31N 31°19' E 121°41'0 0.0
2015-Apr-30 19:28N 31°19' E 121°41'0 0.0
2015-Apr-30 18:31N 31°19' E 121°41'0 0.0
2015-Apr-30 17:31N 31°19' E 121°41'0 0.0
2015-Apr-30 16:31N 31°19' E 121°41'0 0.0
2015-Apr-30 15:31N 31°19' E 121°41'0 0.0
2015-Apr-30 14:31N 31°19' E 121°41'1 0.7
2015-Apr-30 13:33N 31°20' E 121°41'9 9.1
2015-Apr-30 12:33N 31°16' E 121°51'10 9.9
2015-Apr-30 11:33N 31°14' E 122°02'1010.1
2015-Apr-30 10:33N 31°10' E 122°13'1111.1
2015-Apr-30 09:33N 31°06' E 122°25'9 9.4
2015-Apr-30 08:33N 31°07' E 122°36'1310.7
2015-Apr-30 07:22N 31°00' E 122°49'10813.4
2015-Apr-29 23:18N 29°12' E 122°37'34914.1
2015-Apr-28 22:33N 24°29' E 118°50'3014.9
2015-Apr-28 20:32N 24°07' E 118°26'1515.0
2015-Apr-28 19:32N 23°56' E 118°15'1514.5
2015-Apr-28 18:29N 23°47' E 118°02'25412.7
2015-Apr-27 22:33N 22°08' E 113°48'1110.7
2015-Apr-27 21:33N 22°19' E 113°48'2712.6
2015-Apr-27 19:24N 22°45' E 113°39'910.9
2015-Apr-27 18:33N 22°53' E 113°34'8 8.2
2015-Apr-27 17:33N 23°01' E 113°32'0 0.0
2015-Apr-27 16:28N 23°01' E 113°32'0 0.0
2015-Apr-27 15:28N 23°01' E 113°32'0 0.0
2015-Apr-27 14:28N 23°01' E 113°32'0 0.0
2015-Apr-27 13:28N 23°01' E 113°32'0 0.0
2015-Apr-27 12:28N 23°01' E 113°32'0 0.0
2015-Apr-27 11:22N 23°01' E 113°32'0 0.0
2015-Apr-27 10:22N 23°01' E 113°32'0 0.0
2015-Apr-27 09:33N 23°01' E 113°32'7 7.2
2015-Apr-27 08:32N 22°54' E 113°34'1110.1
2015-Apr-27 07:29N 22°44' E 113°40'1111.5
2015-Apr-27 06:34N 22°34' E 113°43'1413.7
2015-Apr-27 05:33N 22°21' E 113°47'1312.7
2015-Apr-27 04:33N 22°08' E 113°47'7 6.6
2015-Apr-27 03:28N 22°02' E 113°51'  
Track history (hours):
 
Tides and Currents Weather Stations Pressure Air Temp Water Temp Dewpoint Dewpoint Depression Visibility Wind Speed Wind Dir Waves Ship Positions

Cosco Tengfei

Last reported at 2015-May-03 23:32 UTC. Time now 2015-May-04 00:57 UTC.
Position N 39°01' E 117°46'.

Length 183 m; draft 8.4 m.

Type: Cargo ship. MMSI: 355518000.

Date/timePositionNaut miles runAvg speedWind from/ knotsBaromVisibWave heightAir tempDewpointWater temp
2015-May-03 23:32N 39°01' E 117°46'5 5.5
2015-May-03 22:33N 38°58' E 117°51'1010.2
2015-May-03 21:31N 38°56' E 118°05'72 6.0
2015-May-03 09:31N 38°46' E 119°36'1313.5
2015-May-03 08:33N 38°44' E 119°53'11113.9
2015-May-03 00:33N 38°04' E 122°05'2014.1
2015-May-02 23:06N 37°50' E 122°23'914.8
2015-May-02 22:31N 37°43' E 122°29'39613.2
2015-May-01 16:32N 31°07' E 122°17'1414.2
2015-May-01 15:33N 31°14' E 122°03'1413.6
2015-May-01 14:34N 31°17' E 121°48'6 5.9
2015-May-01 13:31N 31°19' E 121°41'0 0.0
2015-May-01 12:31N 31°19' E 121°41'0 0.0
2015-May-01 11:31N 31°19' E 121°41'0 0.0
2015-May-01 10:31N 31°19' E 121°41'0 0.0
2015-May-01 09:31N 31°19' E 121°41'0 0.0
2015-May-01 08:31N 31°19' E 121°41'0 0.0
2015-May-01 07:31N 31°19' E 121°41'0 0.0
2015-May-01 06:31N 31°19' E 121°41'0 0.0
2015-May-01 05:28N 31°19' E 121°41'0 0.0
2015-May-01 04:31N 31°19' E 121°41'0 0.0
2015-May-01 03:25N 31°19' E 121°41'0 0.0
2015-May-01 02:28N 31°19' E 121°41'0 0.0
2015-May-01 01:31N 31°19' E 121°41'0 0.0
2015-May-01 00:28N 31°19' E 121°41'0 0.0
2015-Apr-30 23:28N 31°19' E 121°41'0 0.0
2015-Apr-30 22:31N 31°19' E 121°41'0 0.0
2015-Apr-30 21:31N 31°19' E 121°41'0 0.0
2015-Apr-30 20:31N 31°19' E 121°41'0 0.0
2015-Apr-30 19:28N 31°19' E 121°41'0 0.0
2015-Apr-30 18:31N 31°19' E 121°41'0 0.0
2015-Apr-30 17:31N 31°19' E 121°41'0 0.0
2015-Apr-30 16:31N 31°19' E 121°41'0 0.0
2015-Apr-30 15:31N 31°19' E 121°41'0 0.0
2015-Apr-30 14:31N 31°19' E 121°41'1 0.7
2015-Apr-30 13:33N 31°20' E 121°41'9 9.1
2015-Apr-30 12:33N 31°16' E 121°51'10 9.9
2015-Apr-30 11:33N 31°14' E 122°02'1010.1
2015-Apr-30 10:33N 31°10' E 122°13'1111.1
2015-Apr-30 09:33N 31°06' E 122°25'9 9.4
2015-Apr-30 08:33N 31°07' E 122°36'1310.7
2015-Apr-30 07:22N 31°00' E 122°49'10813.4
2015-Apr-29 23:18N 29°12' E 122°37'34914.1
2015-Apr-28 22:33N 24°29' E 118°50'3014.9
2015-Apr-28 20:32N 24°07' E 118°26'1515.0
2015-Apr-28 19:32N 23°56' E 118°15'1514.5
2015-Apr-28 18:29N 23°47' E 118°02'25412.7
2015-Apr-27 22:33N 22°08' E 113°48'1110.7
2015-Apr-27 21:33N 22°19' E 113°48'2712.6
2015-Apr-27 19:24N 22°45' E 113°39'910.9
2015-Apr-27 18:33N 22°53' E 113°34'8 8.2
2015-Apr-27 17:33N 23°01' E 113°32'0 0.0
2015-Apr-27 16:28N 23°01' E 113°32'0 0.0
2015-Apr-27 15:28N 23°01' E 113°32'0 0.0
2015-Apr-27 14:28N 23°01' E 113°32'0 0.0
2015-Apr-27 13:28N 23°01' E 113°32'0 0.0
2015-Apr-27 12:28N 23°01' E 113°32'0 0.0
2015-Apr-27 11:22N 23°01' E 113°32'0 0.0
2015-Apr-27 10:22N 23°01' E 113°32'0 0.0
2015-Apr-27 09:33N 23°01' E 113°32'7 7.2
2015-Apr-27 08:32N 22°54' E 113°34'1110.1
2015-Apr-27 07:29N 22°44' E 113°40'1111.5
2015-Apr-27 06:34N 22°34' E 113°43'1413.7
2015-Apr-27 05:33N 22°21' E 113°47'1312.7
2015-Apr-27 04:33N 22°08' E 113°47'7 6.6
2015-Apr-27 03:28N 22°02' E 113°51'  

Dump ship's entire track history